createdAt,value
2022-09-15T00:01:08.091Z,393.58
2022-09-15T00:03:35.618Z,351.30
2022-09-15T00:06:03.233Z,214.25
2022-09-15T00:08:31.375Z,361.13
2022-09-15T00:11:03.488Z,225.80
2022-09-15T00:13:30.586Z,376.98
2022-09-15T00:15:57.732Z,499.80
2022-09-15T00:18:25.222Z,364.23
2022-09-15T00:20:52.714Z,161.07
2022-09-15T00:23:19.911Z,327.85
2022-09-15T00:25:56.174Z,388.17
2022-09-15T00:28:26.387Z,403.13
2022-09-15T00:30:56.206Z,379.52
2022-09-15T00:33:25.628Z,280.95
2022-09-15T00:35:53.858Z,479.83
2022-09-15T00:38:21.401Z,683.03
2022-09-15T00:40:52.212Z,197.35
2022-09-15T00:43:44.619Z,459.65
2022-09-15T00:46:12.591Z,273.83
2022-09-15T00:48:45.887Z,395.52
2022-09-15T00:51:16.827Z,273.30
2022-09-15T00:53:46.487Z,294.20
2022-09-15T00:56:16.311Z,95.90
2022-09-15T00:58:49.035Z,423.50
2022-09-15T01:01:16.535Z,542.53
2022-09-15T01:03:43.827Z,357.17
2022-09-15T01:06:47.590Z,341.83
2022-09-15T01:09:33.617Z,415.77
2022-09-15T01:12:02.427Z,271.20
2022-09-15T01:14:29.475Z,450.85
2022-09-15T01:17:07.130Z,142.88
2022-09-15T01:19:52.173Z,417.58
2022-09-15T01:22:22.059Z,563.28
2022-09-15T01:25:02.841Z,557.58
2022-09-15T01:27:42.643Z,534.90
2022-09-15T01:30:26.168Z,421.35
2022-09-15T01:35:48.609Z,61.72
2022-09-15T01:38:25.005Z,12.90
2022-09-15T01:41:00.313Z,9.48
2022-09-15T01:43:29.950Z,7.72
2022-09-15T01:45:59.934Z,7.05
2022-09-15T01:48:28.949Z,6.88
2022-09-15T01:51:00.703Z,7.88
2022-09-15T01:53:28.990Z,6.03
2022-09-15T01:56:11.016Z,6.93
2022-09-15T01:58:41.552Z,5.68
2022-09-15T02:01:31.827Z,6.13
2022-09-15T02:04:06.194Z,5.95
2022-09-15T02:07:08.304Z,5.15
2022-09-15T02:09:57.655Z,6.72
2022-09-15T02:12:43.193Z,4.03
2022-09-15T02:15:16.762Z,3.05
2022-09-15T02:17:50.649Z,4.30
2022-09-15T02:20:34.376Z,3.03
2022-09-15T02:23:08.606Z,4.50
2022-09-15T02:25:51.715Z,3.10
2022-09-15T02:30:49.302Z,4.32
2022-09-15T02:33:21.564Z,4.13
2022-09-15T02:35:48.887Z,4.18
2022-09-15T02:38:16.057Z,3.03
2022-09-15T02:40:44.775Z,2.97
2022-09-15T02:43:15.428Z,2.50
2022-09-15T02:45:42.997Z,3.20
2022-09-15T02:48:10.245Z,2.70
2022-09-15T02:50:38.652Z,2.60
2022-09-15T02:53:05.910Z,2.40
2022-09-15T02:55:33.942Z,2.78
2022-09-15T02:58:01.291Z,4.57
2022-09-15T03:00:28.880Z,2.15
2022-09-15T03:02:56.307Z,3.55
2022-09-15T03:05:26.941Z,4.53
2022-09-15T03:07:55.198Z,2.30
2022-09-15T03:10:24.164Z,4.47
2022-09-15T03:12:53.336Z,2.70
2022-09-15T03:15:23.349Z,2.38
2022-09-15T03:17:52.099Z,3.00
2022-09-15T03:20:28.858Z,3.60
2022-09-15T03:22:56.210Z,3.50
2022-09-15T03:25:23.682Z,4.10
2022-09-15T03:27:50.816Z,2.55
2022-09-15T03:30:18.082Z,5.43
2022-09-15T03:32:45.244Z,4.80
2022-09-15T03:35:12.387Z,4.22
2022-09-15T03:37:39.623Z,4.18
2022-09-15T03:40:07.527Z,2.88
2022-09-15T03:42:34.717Z,2.80
2022-09-15T03:45:01.857Z,2.55
2022-09-15T03:47:30.311Z,2.28
2022-09-15T03:49:57.410Z,4.47
2022-09-15T03:52:24.495Z,3.65
2022-09-15T03:54:51.863Z,2.33
2022-09-15T03:57:18.985Z,3.25
2022-09-15T03:59:46.630Z,3.88
2022-09-15T04:02:14.539Z,3.08
2022-09-15T04:04:41.669Z,3.55
2022-09-15T04:07:09.249Z,6.95
2022-09-15T04:09:37.455Z,2.80
2022-09-15T04:12:04.847Z,4.82
2022-09-15T04:14:32.005Z,2.55
2022-09-15T04:16:59.105Z,2.85
2022-09-15T04:19:26.417Z,3.80
2022-09-15T04:21:53.568Z,2.60
2022-09-15T04:24:20.809Z,5.03
2022-09-15T04:26:48.012Z,4.80
2022-09-15T04:29:16.654Z,4.13
2022-09-15T04:31:43.891Z,2.90
2022-09-15T04:34:11.404Z,3.17
2022-09-15T04:36:38.686Z,3.30
2022-09-15T04:39:06.796Z,4.68
2022-09-15T04:41:33.991Z,3.65
2022-09-15T04:44:01.324Z,4.45
2022-09-15T04:46:28.525Z,2.60
2022-09-15T04:48:56.308Z,2.40
2022-09-15T04:51:24.200Z,2.80
2022-09-15T04:53:52.174Z,3.85
2022-09-15T04:56:22.308Z,3.28
2022-09-15T04:59:03.138Z,3.38
2022-09-15T05:01:33.992Z,2.58
2022-09-15T05:04:06.031Z,2.35
2022-09-15T05:06:35.150Z,2.30
2022-09-15T05:09:09.696Z,1.98
2022-09-15T05:11:38.033Z,3.42
2022-09-15T05:14:05.485Z,1.90
2022-09-15T05:16:32.792Z,2.72
2022-09-15T05:19:01.714Z,2.35
2022-09-15T05:21:29.640Z,1.52
2022-09-15T05:23:56.964Z,1.73
2022-09-15T05:26:27.138Z,1.63
2022-09-15T05:28:55.951Z,1.65
2022-09-15T05:31:29.180Z,3.28
2022-09-15T05:33:56.907Z,1.30
2022-09-15T05:36:27.798Z,2.20
2022-09-15T05:38:58.228Z,2.30
2022-09-15T05:41:26.814Z,3.63
2022-09-15T05:43:57.105Z,1.25
2022-09-15T05:46:28.197Z,3.42
2022-09-15T05:48:59.274Z,3.67
2022-09-15T05:51:26.843Z,1.83
2022-09-15T05:53:54.034Z,1.58
2022-09-15T05:56:21.210Z,3.45
2022-09-15T05:58:49.605Z,1.30
2022-09-15T06:01:28.542Z,2.72
2022-09-15T06:03:57.282Z,1.50
2022-09-15T06:06:25.967Z,1.60
2022-09-15T06:08:58.362Z,2.85
2022-09-15T06:11:28.991Z,2.08
2022-09-15T06:13:59.009Z,4.18
2022-09-15T06:16:26.912Z,2.72
2022-09-15T06:18:54.487Z,2.60
2022-09-15T06:21:27.206Z,1.85
2022-09-15T06:23:56.043Z,4.13
2022-09-15T06:26:24.051Z,2.55
2022-09-15T06:28:52.671Z,1.80
2022-09-15T06:31:21.377Z,3.88
2022-09-15T06:33:51.884Z,1.85
2022-09-15T06:36:21.285Z,2.13
2022-09-15T06:38:48.887Z,2.80
2022-09-15T06:41:16.811Z,1.55
2022-09-15T06:43:45.134Z,1.98
2022-09-15T06:46:15.160Z,3.80
2022-09-15T06:48:46.345Z,4.47
2022-09-15T06:51:18.419Z,5.40
2022-09-15T06:53:47.069Z,4.53
2022-09-15T06:56:17.390Z,3.35
2022-09-15T06:58:45.618Z,3.05
2022-09-15T07:01:24.218Z,2.90
2022-09-15T07:03:52.252Z,2.72
2022-09-15T07:06:19.735Z,3.05
2022-09-15T07:08:47.421Z,4.13
2022-09-15T07:11:14.671Z,3.05
2022-09-15T07:13:42.723Z,6.53
2022-09-15T07:16:13.245Z,5.65
2022-09-15T07:18:43.565Z,2.45
2022-09-15T07:21:16.831Z,7.75
2022-09-15T07:23:44.771Z,5.15
2022-09-15T07:26:20.483Z,3.65
2022-09-15T07:28:54.202Z,4.03
2022-09-15T07:31:23.683Z,4.45
2022-09-15T07:33:51.144Z,2.58
2022-09-15T07:36:18.919Z,4.88
2022-09-15T07:38:48.561Z,2.17
2022-09-15T07:41:18.757Z,2.65
2022-09-15T07:43:49.953Z,4.38
2022-09-15T07:46:18.930Z,3.80
2022-09-15T07:48:51.728Z,5.07
2022-09-15T07:51:19.705Z,2.40
2022-09-15T07:54:02.396Z,3.08
2022-09-15T07:56:29.533Z,4.47
2022-09-15T07:58:57.136Z,3.47
2022-09-15T08:01:24.327Z,9.23
2022-09-15T08:03:52.677Z,4.90
2022-09-15T08:06:22.793Z,4.50
2022-09-15T08:08:53.983Z,5.70
2022-09-15T08:11:23.714Z,4.82
2022-09-15T08:13:52.485Z,2.88
2022-09-15T08:16:24.228Z,3.80
2022-09-15T08:18:54.944Z,2.58
2022-09-15T08:21:23.313Z,9.05
2022-09-15T08:23:56.289Z,5.63
2022-09-15T08:26:24.647Z,3.90
2022-09-15T08:28:52.693Z,4.15
2022-09-15T08:31:20.370Z,3.38
2022-09-15T08:33:49.874Z,5.65
2022-09-15T08:36:17.431Z,2.90
2022-09-15T08:38:48.214Z,3.53
2022-09-15T08:41:22.736Z,3.47
2022-09-15T08:43:59.506Z,3.53
2022-09-15T08:46:38.382Z,5.70
2022-09-15T08:49:13.486Z,3.47
2022-09-15T08:51:46.382Z,5.75
2022-09-15T08:54:22.371Z,6.68
2022-09-15T08:56:50.479Z,3.95
2022-09-15T08:59:19.528Z,5.28
2022-09-15T09:02:34.659Z,6.25
2022-09-15T09:05:29.615Z,3.00
2022-09-15T09:08:27.180Z,4.85
2022-09-15T09:11:06.474Z,7.82
2022-09-15T09:13:49.761Z,4.85
2022-09-15T09:16:51.485Z,4.30
2022-09-15T09:19:32.211Z,5.05
2022-09-15T09:22:10.755Z,4.25
2022-09-15T09:24:48.546Z,3.65
2022-09-15T09:27:26.645Z,3.80
2022-09-15T09:30:12.548Z,5.03
2022-09-15T09:32:47.888Z,5.97
2022-09-15T09:35:45.121Z,6.30
2022-09-15T09:38:18.513Z,8.75
2022-09-15T09:40:45.826Z,4.75
2022-09-15T09:43:13.205Z,2.55
2022-09-15T09:45:40.548Z,4.10
2022-09-15T09:48:23.013Z,3.53
2022-09-15T09:50:50.955Z,4.53
2022-09-15T09:53:32.920Z,7.18
2022-09-15T09:56:26.851Z,5.28
2022-09-15T09:58:54.731Z,4.65
2022-09-15T10:01:25.518Z,5.03
2022-09-15T10:04:17.993Z,4.72
2022-09-15T10:06:45.577Z,6.88
2022-09-15T10:09:18.310Z,6.50
2022-09-15T10:14:35.366Z,6.10
2022-09-15T10:17:36.622Z,4.30
2022-09-15T10:20:07.506Z,4.28
2022-09-15T10:22:34.596Z,4.60
2022-09-15T10:25:23.484Z,9.18
2022-09-15T10:28:11.003Z,7.80
2022-09-15T10:30:38.865Z,6.63
2022-09-15T10:33:23.761Z,4.15
2022-09-15T10:35:51.911Z,3.42
2022-09-15T10:38:26.505Z,4.95
2022-09-15T10:41:09.538Z,3.63
2022-09-15T10:44:05.733Z,3.35
2022-09-15T10:47:10.241Z,5.15
2022-09-15T10:49:56.074Z,4.65
2022-09-15T10:52:47.121Z,4.85
2022-09-15T10:55:36.778Z,5.28
2022-09-15T10:58:21.760Z,4.00
2022-09-15T11:01:01.646Z,4.57
2022-09-15T11:03:43.589Z,4.70
2022-09-15T11:06:43.846Z,3.47
2022-09-15T11:09:14.076Z,5.00
2022-09-15T11:12:16.845Z,7.57
2022-09-15T11:14:50.545Z,4.78
2022-09-15T11:17:29.953Z,3.47
2022-09-15T11:20:04.047Z,5.25
2022-09-15T11:22:38.653Z,5.50
2022-09-15T11:25:17.096Z,6.15
2022-09-15T11:28:00.213Z,9.77
2022-09-15T11:30:37.354Z,4.88
2022-09-15T11:33:15.487Z,10.75
2022-09-15T11:35:57.584Z,8.27
2022-09-15T11:39:28.410Z,6.97
2022-09-15T11:42:08.319Z,8.10
2022-09-15T11:44:39.411Z,9.75
2022-09-15T11:47:28.771Z,6.75
2022-09-15T11:50:10.928Z,7.20
2022-09-15T11:52:59.162Z,6.73
2022-09-15T11:55:35.880Z,12.30
2022-09-15T11:58:32.564Z,7.93
2022-09-15T12:01:07.388Z,9.15
2022-09-15T12:03:52.875Z,11.25
2022-09-15T12:06:56.647Z,9.10
2022-09-15T12:09:23.955Z,11.57
2022-09-15T12:12:04.823Z,9.13
2022-09-15T12:14:36.026Z,13.77
2022-09-15T12:17:13.755Z,10.57
2022-09-15T12:20:11.074Z,8.30
2022-09-15T12:22:47.223Z,15.13
2022-09-15T12:25:25.298Z,10.55
2022-09-15T12:28:24.129Z,9.45
2022-09-15T12:31:30.405Z,7.82
2022-09-15T12:34:05.528Z,13.43
2022-09-15T12:36:40.102Z,11.23
2022-09-15T12:39:22.655Z,8.10
2022-09-15T12:41:53.874Z,6.13
2022-09-15T12:44:32.297Z,8.40
2022-09-15T12:47:00.600Z,4.30
2022-09-15T12:49:42.170Z,7.22
2022-09-15T12:52:10.484Z,5.40
2022-09-15T12:54:41.062Z,4.88
2022-09-15T12:57:20.770Z,4.78
2022-09-15T12:59:47.966Z,6.97
2022-09-15T13:02:50.758Z,6.15
2022-09-15T13:05:42.943Z,4.05
2022-09-15T13:08:12.438Z,4.75
2022-09-15T13:10:43.692Z,8.70
2022-09-15T13:13:20.389Z,8.35
2022-09-15T13:15:50.772Z,6.22
2022-09-15T13:18:20.487Z,7.13
2022-09-15T13:20:58.230Z,5.70
2022-09-15T13:23:29.283Z,6.88
2022-09-15T13:25:59.930Z,5.20
2022-09-15T13:28:27.681Z,4.38
2022-09-15T13:30:57.762Z,5.53
2022-09-15T13:39:40.347Z,4.95
2022-09-15T13:42:44.658Z,10.38
2022-09-15T13:45:46.999Z,3.90
2022-09-15T13:48:17.057Z,4.60
2022-09-15T13:51:01.245Z,3.40
2022-09-15T13:53:37.589Z,4.78
2022-09-15T13:56:09.157Z,6.65
2022-09-15T14:01:25.443Z,6.30
2022-09-15T14:03:55.089Z,6.45
2022-09-15T14:06:33.901Z,8.13
2022-09-15T14:09:06.657Z,5.65
2022-09-15T14:14:03.506Z,5.45
2022-09-15T14:16:34.036Z,5.13
2022-09-15T14:19:04.072Z,7.03
2022-09-15T14:21:33.697Z,6.03
2022-09-15T14:24:16.182Z,5.38
2022-09-15T14:26:43.561Z,7.60
2022-09-15T14:29:18.915Z,6.25
2022-09-15T14:31:48.196Z,9.50
2022-09-15T14:34:19.708Z,5.93
2022-09-15T14:36:59.490Z,6.32
2022-09-15T14:39:26.608Z,9.02
2022-09-15T14:41:53.839Z,6.40
2022-09-15T14:47:28.121Z,6.78
2022-09-15T14:50:09.954Z,10.23
2022-09-15T14:53:00.954Z,8.63
2022-09-15T14:55:33.134Z,8.00
2022-09-15T14:59:02.078Z,5.30
2022-09-15T15:01:37.094Z,8.85
2022-09-15T15:04:29.069Z,4.32
2022-09-15T15:07:22.874Z,5.53
2022-09-15T15:10:02.298Z,5.88
2022-09-15T15:12:39.948Z,4.63
2022-09-15T15:15:07.815Z,4.63
2022-09-15T15:17:37.113Z,8.95
2022-09-15T15:20:10.609Z,4.35
2022-09-15T15:22:39.788Z,7.85
2022-09-15T15:25:37.372Z,7.15
2022-09-15T15:28:06.159Z,5.38
2022-09-15T15:30:36.642Z,4.10
2022-09-15T15:33:19.921Z,10.70
2022-09-15T15:35:48.823Z,4.82
2022-09-15T15:38:18.519Z,6.20
2022-09-15T15:40:46.980Z,2.83
2022-09-15T15:43:14.064Z,3.55
2022-09-15T15:46:03.256Z,4.38
2022-09-15T15:48:36.914Z,4.65
2022-09-15T15:51:06.761Z,4.93
2022-09-15T15:53:34.523Z,7.60
2022-09-15T15:56:02.066Z,2.95
2022-09-15T15:58:29.144Z,7.20
2022-09-15T16:00:57.219Z,5.03
2022-09-15T16:03:25.965Z,10.30
2022-09-15T16:06:03.128Z,4.60
2022-09-15T16:08:38.275Z,4.70
2022-09-15T16:11:08.704Z,5.53
2022-09-15T16:13:35.997Z,5.20
2022-09-15T16:16:14.106Z,5.30
2022-09-15T16:18:41.418Z,4.80
2022-09-15T16:21:17.432Z,8.15
2022-09-15T16:23:45.156Z,7.05
2022-09-15T16:26:18.180Z,5.38
2022-09-15T16:28:45.414Z,8.07
2022-09-15T16:31:14.222Z,4.47
2022-09-15T16:33:42.636Z,7.65
2022-09-15T16:36:15.558Z,7.28
2022-09-15T16:41:13.346Z,8.82
2022-09-15T16:43:40.563Z,4.50
2022-09-15T16:46:09.543Z,12.07
2022-09-15T16:48:37.386Z,7.95
2022-09-15T16:51:27.994Z,5.20
2022-09-15T16:53:53.077Z,9.32
2022-09-15T16:56:20.198Z,8.48
2022-09-15T16:58:47.325Z,7.65
2022-09-15T17:01:18.448Z,9.52
2022-09-15T17:03:46.359Z,11.32
2022-09-15T17:06:17.904Z,9.57
2022-09-15T17:08:45.402Z,9.40
2022-09-15T17:11:16.858Z,11.18
2022-09-15T17:13:45.004Z,12.43
2022-09-15T17:16:19.447Z,9.20
2022-09-15T17:18:47.117Z,12.77
2022-09-15T17:21:22.520Z,8.43
2022-09-15T17:23:50.260Z,10.88
2022-09-15T17:26:21.260Z,8.50
2022-09-15T17:28:49.392Z,6.47
2022-09-15T17:31:19.711Z,5.15
2022-09-15T17:33:47.671Z,5.72
2022-09-15T17:36:15.606Z,6.82
2022-09-15T17:38:43.125Z,9.32
2022-09-15T17:41:19.292Z,6.22
2022-09-15T17:43:46.929Z,5.95
2022-09-15T17:46:14.341Z,10.00
2022-09-15T17:48:41.891Z,9.77
2022-09-15T17:51:15.296Z,7.80
2022-09-15T17:53:43.399Z,7.43
2022-09-15T17:56:10.643Z,9.90
2022-09-15T17:58:37.869Z,10.73
2022-09-15T18:01:05.192Z,8.82
2022-09-15T18:03:35.122Z,9.98
2022-09-15T18:06:06.463Z,18.23
2022-09-15T18:08:35.963Z,7.80
2022-09-15T18:11:05.367Z,14.82
2022-09-15T18:13:32.824Z,9.20
2022-09-15T18:16:05.926Z,12.15
2022-09-15T18:18:33.768Z,14.13
2022-09-15T18:21:01.268Z,20.98
2022-09-15T18:23:29.665Z,22.08
2022-09-15T18:25:57.712Z,20.98
2022-09-15T18:28:26.824Z,22.60
2022-09-15T18:30:54.429Z,17.45
2022-09-15T18:33:26.171Z,25.45
2022-09-15T18:35:56.842Z,24.83
2022-09-15T18:38:24.420Z,20.65
2022-09-15T18:40:55.457Z,19.08
2022-09-15T18:43:28.041Z,20.13
2022-09-15T18:46:00.001Z,18.92
2022-09-15T18:48:27.590Z,17.77
2022-09-15T18:50:55.293Z,24.00
2022-09-15T18:53:22.900Z,18.35
2022-09-15T18:55:50.321Z,27.73
2022-09-15T19:01:22.064Z,33.47
2022-09-15T19:03:52.543Z,29.75
2022-09-15T19:06:21.947Z,28.85
2022-09-15T19:08:49.104Z,29.48
2022-09-15T19:11:16.307Z,19.55
2022-09-15T19:13:43.701Z,20.90
2022-09-15T19:16:11.212Z,15.38
2022-09-15T19:18:38.534Z,18.30
2022-09-15T19:21:10.860Z,16.55
2022-09-15T19:24:00.830Z,19.92
2022-09-15T19:26:29.655Z,16.40
2022-09-15T19:28:57.752Z,21.98
2022-09-15T19:31:26.248Z,16.38
2022-09-15T19:33:56.399Z,15.52
2022-09-15T19:36:28.319Z,16.20
2022-09-15T19:39:00.510Z,16.95
2022-09-15T19:41:27.746Z,21.63
2022-09-15T19:43:54.967Z,23.58
2022-09-15T19:46:24.492Z,18.25
2022-09-15T19:48:52.961Z,30.92
2022-09-15T19:51:21.829Z,18.80
2022-09-15T19:53:49.462Z,17.90
2022-09-15T19:56:19.907Z,13.98
2022-09-15T19:58:47.252Z,14.02
2022-09-15T20:01:14.995Z,18.58
2022-09-15T20:06:31.666Z,14.02
2022-09-15T20:09:00.015Z,15.10
2022-09-15T20:11:28.330Z,17.75
2022-09-15T20:13:56.392Z,17.42
2022-09-15T20:16:24.877Z,13.75
2022-09-15T20:18:54.086Z,15.75
2022-09-15T20:21:48.656Z,17.17
2022-09-15T20:24:16.190Z,20.30
2022-09-15T20:26:43.375Z,17.05
2022-09-15T20:29:11.320Z,15.15
2022-09-15T20:31:38.704Z,17.73
2022-09-15T20:34:06.074Z,26.05
2022-09-15T20:36:36.295Z,16.58
2022-09-15T20:39:06.509Z,20.83
2022-09-15T20:41:33.658Z,24.27
2022-09-15T20:44:01.875Z,19.05
2022-09-15T20:46:29.492Z,21.48
2022-09-15T20:48:56.575Z,18.88
2022-09-15T20:51:26.271Z,22.05
2022-09-15T20:53:57.247Z,22.25
2022-09-15T20:56:27.096Z,22.83
2022-09-15T20:58:56.719Z,25.10
2022-09-15T21:01:29.863Z,23.25
2022-09-15T21:03:57.140Z,24.73
2022-09-15T21:06:26.298Z,23.92
2022-09-15T21:08:56.801Z,18.60
2022-09-15T21:11:26.711Z,17.77
2022-09-15T21:13:55.048Z,24.83
2022-09-15T21:16:24.698Z,19.88
2022-09-15T21:18:52.366Z,24.27
2022-09-15T21:21:31.178Z,21.35
2022-09-15T21:24:06.306Z,19.35
2022-09-15T21:26:35.637Z,20.35
2022-09-15T21:29:03.041Z,22.65
2022-09-15T21:31:32.855Z,20.35
2022-09-15T21:34:00.539Z,21.38
2022-09-15T21:36:30.338Z,20.52
2022-09-15T21:39:00.193Z,15.13
2022-09-15T21:41:31.842Z,15.88
2022-09-15T21:43:59.407Z,14.85
2022-09-15T21:46:29.045Z,14.57
2022-09-15T21:48:58.269Z,9.48
2022-09-15T21:51:27.120Z,12.32
2022-09-15T21:53:56.294Z,10.88
2022-09-15T21:56:24.478Z,13.52
2022-09-15T21:58:51.810Z,12.50
2022-09-15T22:01:24.302Z,16.90
2022-09-15T22:03:58.635Z,34.88
2022-09-15T22:06:30.315Z,65.80
2022-09-15T22:08:59.575Z,63.53
2022-09-15T22:11:27.102Z,58.65
2022-09-15T22:13:54.429Z,49.95
2022-09-15T22:16:24.453Z,56.45
2022-09-15T22:18:52.652Z,67.78
2022-09-15T22:21:22.557Z,70.07
2022-09-15T22:23:52.013Z,60.25
2022-09-15T22:26:21.468Z,68.40
2022-09-15T22:28:48.909Z,60.90
2022-09-15T22:31:18.005Z,66.70
2022-09-15T22:33:46.142Z,53.38
2022-09-15T22:36:15.528Z,66.53
2022-09-15T22:38:42.956Z,56.13
2022-09-15T22:41:13.610Z,63.90
2022-09-15T22:43:43.038Z,56.22
2022-09-15T22:46:13.666Z,49.03
2022-09-15T22:48:43.510Z,45.33
2022-09-15T22:51:11.738Z,42.63
2022-09-15T22:53:39.232Z,41.70
2022-09-15T22:56:12.033Z,35.05
2022-09-15T22:58:43.514Z,29.77
2022-09-15T23:01:17.025Z,22.98
2022-09-15T23:03:47.629Z,29.58
2022-09-15T23:06:14.855Z,23.67
2022-09-15T23:08:42.052Z,19.60
2022-09-15T23:11:12.958Z,20.00
2022-09-15T23:13:41.264Z,15.75
2022-09-15T23:16:09.372Z,18.10
2022-09-15T23:18:37.120Z,16.58
2022-09-15T23:21:09.817Z,18.95
2022-09-15T23:23:39.188Z,18.00
2022-09-15T23:26:10.150Z,19.17
2022-09-15T23:28:39.300Z,18.70
2022-09-15T23:31:07.337Z,18.83
2022-09-15T23:33:34.806Z,17.27
2022-09-15T23:36:03.636Z,15.63
2022-09-15T23:38:31.086Z,19.50
2022-09-15T23:40:58.138Z,22.83
2022-09-15T23:43:25.370Z,21.05
2022-09-15T23:45:53.616Z,17.45
2022-09-15T23:48:21.034Z,20.95
2022-09-15T23:50:48.431Z,20.65
2022-09-15T23:53:15.547Z,22.10
2022-09-15T23:55:42.615Z,19.08
2022-09-15T23:58:11.208Z,20.27
